sensor_id;sensor_type;location;lat;lon;timestamp;P1;durP1;ratioP1;P2;durP2;ratioP2
5539;SDS011;2792;52.452;9.752;2023-09-07T00:00:24;5.87;;;5.20;;
5539;SDS011;2792;52.452;9.752;2023-09-07T00:02:50;7.20;;;5.20;;
5539;SDS011;2792;52.452;9.752;2023-09-07T00:05:17;6.57;;;5.87;;
5539;SDS011;2792;52.452;9.752;2023-09-07T00:07:43;8.67;;;5.57;;
5539;SDS011;2792;52.452;9.752;2023-09-07T00:10:11;6.70;;;5.80;;
5539;SDS011;2792;52.452;9.752;2023-09-07T00:12:38;7.33;;;5.80;;
5539;SDS011;2792;52.452;9.752;2023-09-07T00:15:05;4.90;;;4.40;;
5539;SDS011;2792;52.452;9.752;2023-09-07T00:17:33;6.27;;;5.67;;
5539;SDS011;2792;52.452;9.752;2023-09-07T00:20:00;7.07;;;6.30;;
5539;SDS011;2792;52.452;9.752;2023-09-07T00:22:29;6.20;;;5.40;;
5539;SDS011;2792;52.452;9.752;2023-09-07T00:24:56;5.93;;;5.33;;
5539;SDS011;2792;52.452;9.752;2023-09-07T00:27:24;6.10;;;5.50;;
5539;SDS011;2792;52.452;9.752;2023-09-07T00:29:49;9.50;;;5.30;;
5539;SDS011;2792;52.452;9.752;2023-09-07T00:32:16;6.13;;;5.63;;
5539;SDS011;2792;52.452;9.752;2023-09-07T00:34:42;6.50;;;5.80;;
5539;SDS011;2792;52.452;9.752;2023-09-07T00:37:09;36.63;;;10.07;;
5539;SDS011;2792;52.452;9.752;2023-09-07T00:39:35;9.47;;;5.67;;
5539;SDS011;2792;52.452;9.752;2023-09-07T00:42:02;8.83;;;5.90;;
5539;SDS011;2792;52.452;9.752;2023-09-07T00:44:30;6.77;;;6.07;;
5539;SDS011;2792;52.452;9.752;2023-09-07T00:46:56;6.13;;;5.60;;
5539;SDS011;2792;52.452;9.752;2023-09-07T00:49:23;7.33;;;6.30;;
5539;SDS011;2792;52.452;9.752;2023-09-07T00:51:50;6.40;;;5.80;;
5539;SDS011;2792;52.452;9.752;2023-09-07T00:54:17;6.83;;;6.17;;
5539;SDS011;2792;52.452;9.752;2023-09-07T00:56:43;6.60;;;6.00;;
5539;SDS011;2792;52.452;9.752;2023-09-07T01:02:03;6.53;;;5.70;;
5539;SDS011;2792;52.452;9.752;2023-09-07T01:04:30;7.17;;;6.03;;
5539;SDS011;2792;52.452;9.752;2023-09-07T01:06:59;6.30;;;5.70;;
5539;SDS011;2792;52.452;9.752;2023-09-07T01:09:30;6.90;;;6.00;;
5539;SDS011;2792;52.452;9.752;2023-09-07T01:11:57;7.10;;;5.53;;
5539;SDS011;2792;52.452;9.752;2023-09-07T01:14:23;6.20;;;5.00;;
5539;SDS011;2792;52.452;9.752;2023-09-07T01:16:51;6.20;;;5.60;;
5539;SDS011;2792;52.452;9.752;2023-09-07T01:19:18;6.70;;;6.10;;
5539;SDS011;2792;52.452;9.752;2023-09-07T01:21:46;7.40;;;6.70;;
5539;SDS011;2792;52.452;9.752;2023-09-07T01:24:13;6.30;;;5.70;;
5539;SDS011;2792;52.452;9.752;2023-09-07T01:26:41;6.60;;;5.77;;
5539;SDS011;2792;52.452;9.752;2023-09-07T01:29:08;8.37;;;7.17;;
5539;SDS011;2792;52.452;9.752;2023-09-07T01:31:35;6.30;;;5.70;;
5539;SDS011;2792;52.452;9.752;2023-09-07T01:34:03;8.63;;;6.73;;
5539;SDS011;2792;52.452;9.752;2023-09-07T01:36:29;6.83;;;6.20;;
5539;SDS011;2792;52.452;9.752;2023-09-07T01:38:57;9.90;;;7.20;;
5539;SDS011;2792;52.452;9.752;2023-09-07T01:41:24;8.33;;;7.53;;
5539;SDS011;2792;52.452;9.752;2023-09-07T01:43:50;7.30;;;6.57;;
5539;SDS011;2792;52.452;9.752;2023-09-07T01:46:17;6.97;;;6.37;;
5539;SDS011;2792;52.452;9.752;2023-09-07T01:48:43;11.20;;;6.90;;
5539;SDS011;2792;52.452;9.752;2023-09-07T01:51:10;7.33;;;6.50;;
5539;SDS011;2792;52.452;9.752;2023-09-07T01:53:36;7.40;;;6.70;;
5539;SDS011;2792;52.452;9.752;2023-09-07T01:56:04;9.97;;;7.20;;
5539;SDS011;2792;52.452;9.752;2023-09-07T01:58:31;7.80;;;7.10;;
5539;SDS011;2792;52.452;9.752;2023-09-07T02:00:59;7.10;;;6.40;;
5539;SDS011;2792;52.452;9.752;2023-09-07T02:03:25;6.93;;;6.23;;
5539;SDS011;2792;52.452;9.752;2023-09-07T02:05:52;7.43;;;6.73;;
5539;SDS011;2792;52.452;9.752;2023-09-07T02:08:19;7.07;;;6.37;;
5539;SDS011;2792;52.452;9.752;2023-09-07T02:10:45;10.00;;;6.67;;
5539;SDS011;2792;52.452;9.752;2023-09-07T02:13:13;7.13;;;6.43;;
5539;SDS011;2792;52.452;9.752;2023-09-07T02:15:40;7.47;;;6.70;;
5539;SDS011;2792;52.452;9.752;2023-09-07T02:18:06;7.70;;;6.93;;
5539;SDS011;2792;52.452;9.752;2023-09-07T02:20:33;8.60;;;6.50;;
5539;SDS011;2792;52.452;9.752;2023-09-07T02:22:59;9.00;;;6.80;;
5539;SDS011;2792;52.452;9.752;2023-09-07T02:25:27;9.00;;;6.90;;
5539;SDS011;2792;52.452;9.752;2023-09-07T02:27:55;9.50;;;7.47;;
5539;SDS011;2792;52.452;9.752;2023-09-07T02:30:23;11.00;;;7.13;;
5539;SDS011;2792;52.452;9.752;2023-09-07T02:32:49;7.93;;;7.13;;
5539;SDS011;2792;52.452;9.752;2023-09-07T02:35:16;11.70;;;7.30;;
5539;SDS011;2792;52.452;9.752;2023-09-07T02:37:42;9.17;;;8.27;;
5539;SDS011;2792;52.452;9.752;2023-09-07T02:40:09;8.60;;;7.10;;
5539;SDS011;2792;52.452;9.752;2023-09-07T02:42:36;7.63;;;6.87;;
5539;SDS011;2792;52.452;9.752;2023-09-07T02:45:03;9.00;;;8.10;;
5539;SDS011;2792;52.452;9.752;2023-09-07T02:47:33;8.43;;;7.30;;
5539;SDS011;2792;52.452;9.752;2023-09-07T02:49:59;14.70;;;8.33;;
5539;SDS011;2792;52.452;9.752;2023-09-07T02:52:26;9.33;;;8.07;;
5539;SDS011;2792;52.452;9.752;2023-09-07T02:54:52;9.23;;;7.80;;
5539;SDS011;2792;52.452;9.752;2023-09-07T02:57:18;8.30;;;7.50;;
5539;SDS011;2792;52.452;9.752;2023-09-07T02:59:45;10.07;;;8.17;;
5539;SDS011;2792;52.452;9.752;2023-09-07T03:02:11;12.47;;;9.03;;
5539;SDS011;2792;52.452;9.752;2023-09-07T03:04:39;9.60;;;7.50;;
5539;SDS011;2792;52.452;9.752;2023-09-07T03:07:06;10.20;;;7.70;;
5539;SDS011;2792;52.452;9.752;2023-09-07T03:09:32;10.67;;;7.63;;
5539;SDS011;2792;52.452;9.752;2023-09-07T03:11:59;8.33;;;6.97;;
5539;SDS011;2792;52.452;9.752;2023-09-07T03:14:25;8.03;;;7.30;;
5539;SDS011;2792;52.452;9.752;2023-09-07T03:16:52;9.10;;;7.70;;
5539;SDS011;2792;52.452;9.752;2023-09-07T03:19:19;8.03;;;7.23;;
5539;SDS011;2792;52.452;9.752;2023-09-07T03:21:47;10.57;;;8.30;;
5539;SDS011;2792;52.452;9.752;2023-09-07T03:24:13;10.27;;;7.83;;
5539;SDS011;2792;52.452;9.752;2023-09-07T03:26:40;9.20;;;8.23;;
5539;SDS011;2792;52.452;9.752;2023-09-07T03:29:08;10.70;;;8.50;;
5539;SDS011;2792;52.452;9.752;2023-09-07T03:31:34;9.50;;;8.50;;
5539;SDS011;2792;52.452;9.752;2023-09-07T03:34:01;10.10;;;7.90;;
5539;SDS011;2792;52.452;9.752;2023-09-07T03:36:27;11.03;;;8.20;;
5539;SDS011;2792;52.452;9.752;2023-09-07T03:38:55;9.60;;;8.57;;
5539;SDS011;2792;52.452;9.752;2023-09-07T03:41:21;14.13;;;9.10;;
5539;SDS011;2792;52.452;9.752;2023-09-07T03:43:48;11.10;;;9.17;;
5539;SDS011;2792;52.452;9.752;2023-09-07T03:46:15;9.50;;;8.50;;
5539;SDS011;2792;52.452;9.752;2023-09-07T03:48:41;12.20;;;9.37;;
5539;SDS011;2792;52.452;9.752;2023-09-07T03:51:07;11.73;;;9.43;;
5539;SDS011;2792;52.452;9.752;2023-09-07T03:53:34;12.37;;;9.73;;
5539;SDS011;2792;52.452;9.752;2023-09-07T03:56:03;12.63;;;9.60;;
5539;SDS011;2792;52.452;9.752;2023-09-07T03:58:30;12.30;;;10.77;;
5539;SDS011;2792;52.452;9.752;2023-09-07T04:00:58;23.93;;;11.80;;
5539;SDS011;2792;52.452;9.752;2023-09-07T04:03:25;11.13;;;10.03;;
5539;SDS011;2792;52.452;9.752;2023-09-07T04:05:52;12.83;;;9.57;;
5539;SDS011;2792;52.452;9.752;2023-09-07T04:08:18;11.30;;;9.37;;
5539;SDS011;2792;52.452;9.752;2023-09-07T04:10:45;11.00;;;9.53;;
5539;SDS011;2792;52.452;9.752;2023-09-07T04:13:13;10.57;;;9.20;;
5539;SDS011;2792;52.452;9.752;2023-09-07T04:15:43;14.03;;;10.23;;
5539;SDS011;2792;52.452;9.752;2023-09-07T04:18:10;11.73;;;9.70;;
5539;SDS011;2792;52.452;9.752;2023-09-07T04:20:37;18.40;;;10.23;;
5539;SDS011;2792;52.452;9.752;2023-09-07T04:23:04;21.13;;;11.20;;
5539;SDS011;2792;52.452;9.752;2023-09-07T04:25:30;11.17;;;9.33;;
5539;SDS011;2792;52.452;9.752;2023-09-07T04:27:58;10.47;;;9.10;;
5539;SDS011;2792;52.452;9.752;2023-09-07T04:30:25;12.53;;;10.37;;
5539;SDS011;2792;52.452;9.752;2023-09-07T04:32:52;13.23;;;9.67;;
5539;SDS011;2792;52.452;9.752;2023-09-07T04:35:19;10.13;;;9.13;;
5539;SDS011;2792;52.452;9.752;2023-09-07T04:37:45;13.83;;;9.70;;
5539;SDS011;2792;52.452;9.752;2023-09-07T04:40:12;12.77;;;10.37;;
5539;SDS011;2792;52.452;9.752;2023-09-07T04:42:38;16.23;;;11.30;;
5539;SDS011;2792;52.452;9.752;2023-09-07T04:45:05;10.70;;;9.50;;
5539;SDS011;2792;52.452;9.752;2023-09-07T04:47:33;13.17;;;10.00;;
5539;SDS011;2792;52.452;9.752;2023-09-07T04:50:02;13.13;;;9.33;;
5539;SDS011;2792;52.452;9.752;2023-09-07T04:52:29;9.80;;;8.80;;
5539;SDS011;2792;52.452;9.752;2023-09-07T04:54:55;12.10;;;10.20;;
5539;SDS011;2792;52.452;9.752;2023-09-07T04:57:22;19.93;;;11.10;;
5539;SDS011;2792;52.452;9.752;2023-09-07T04:59:48;12.70;;;10.33;;
5539;SDS011;2792;52.452;9.752;2023-09-07T05:02:15;16.27;;;10.30;;
5539;SDS011;2792;52.452;9.752;2023-09-07T05:04:43;11.03;;;9.73;;
5539;SDS011;2792;52.452;9.752;2023-09-07T05:07:10;12.10;;;10.00;;
5539;SDS011;2792;52.452;9.752;2023-09-07T05:09:37;11.27;;;10.07;;
5539;SDS011;2792;52.452;9.752;2023-09-07T05:12:04;12.70;;;10.50;;
5539;SDS011;2792;52.452;9.752;2023-09-07T05:14:31;12.93;;;9.93;;
5539;SDS011;2792;52.452;9.752;2023-09-07T05:16:57;11.47;;;10.23;;
5539;SDS011;2792;52.452;9.752;2023-09-07T05:19:24;19.83;;;11.40;;
5539;SDS011;2792;52.452;9.752;2023-09-07T05:21:52;13.43;;;9.50;;
5539;SDS011;2792;52.452;9.752;2023-09-07T05:24:18;12.40;;;9.67;;
5539;SDS011;2792;52.452;9.752;2023-09-07T05:26:45;9.50;;;8.50;;
5539;SDS011;2792;52.452;9.752;2023-09-07T05:29:11;10.23;;;9.10;;
5539;SDS011;2792;52.452;9.752;2023-09-07T05:31:38;10.00;;;8.03;;
5539;SDS011;2792;52.452;9.752;2023-09-07T05:34:04;11.00;;;8.07;;
5539;SDS011;2792;52.452;9.752;2023-09-07T05:36:31;7.97;;;6.90;;
5539;SDS011;2792;52.452;9.752;2023-09-07T05:38:59;11.27;;;7.13;;
5539;SDS011;2792;52.452;9.752;2023-09-07T05:41:27;7.20;;;6.50;;
5539;SDS011;2792;52.452;9.752;2023-09-07T05:43:53;7.27;;;6.57;;
5539;SDS011;2792;52.452;9.752;2023-09-07T05:46:20;8.37;;;6.40;;
5539;SDS011;2792;52.452;9.752;2023-09-07T05:48:46;8.30;;;6.10;;
5539;SDS011;2792;52.452;9.752;2023-09-07T05:51:13;9.60;;;7.23;;
5539;SDS011;2792;52.452;9.752;2023-09-07T05:53:39;9.93;;;6.20;;
5539;SDS011;2792;52.452;9.752;2023-09-07T05:56:07;7.63;;;6.13;;
5539;SDS011;2792;52.452;9.752;2023-09-07T05:58:33;7.37;;;6.07;;
5539;SDS011;2792;52.452;9.752;2023-09-07T06:01:00;6.37;;;5.70;;
5539;SDS011;2792;52.452;9.752;2023-09-07T06:03:26;6.03;;;5.37;;
5539;SDS011;2792;52.452;9.752;2023-09-07T06:05:53;7.93;;;5.40;;
5539;SDS011;2792;52.452;9.752;2023-09-07T06:08:20;13.70;;;6.50;;
5539;SDS011;2792;52.452;9.752;2023-09-07T06:10:46;9.00;;;6.50;;
5539;SDS011;2792;52.452;9.752;2023-09-07T06:13:15;7.40;;;6.07;;
5539;SDS011;2792;52.452;9.752;2023-09-07T06:15:42;8.33;;;5.67;;
5539;SDS011;2792;52.452;9.752;2023-09-07T06:18:08;6.73;;;5.70;;
5539;SDS011;2792;52.452;9.752;2023-09-07T06:20:35;7.67;;;6.43;;
5539;SDS011;2792;52.452;9.752;2023-09-07T06:23:01;8.43;;;6.57;;
5539;SDS011;2792;52.452;9.752;2023-09-07T06:25:28;8.73;;;7.10;;
5539;SDS011;2792;52.452;9.752;2023-09-07T06:27:54;6.90;;;6.20;;
5539;SDS011;2792;52.452;9.752;2023-09-07T06:30:22;9.33;;;7.47;;
5539;SDS011;2792;52.452;9.752;2023-09-07T06:32:48;7.73;;;6.80;;
5539;SDS011;2792;52.452;9.752;2023-09-07T06:35:16;9.50;;;7.60;;
5539;SDS011;2792;52.452;9.752;2023-09-07T06:37:43;8.40;;;6.90;;
5539;SDS011;2792;52.452;9.752;2023-09-07T06:40:10;12.53;;;9.20;;
5539;SDS011;2792;52.452;9.752;2023-09-07T06:42:37;14.43;;;7.27;;
5539;SDS011;2792;52.452;9.752;2023-09-07T06:45:04;12.13;;;8.13;;
5539;SDS011;2792;52.452;9.752;2023-09-07T06:47:33;10.60;;;7.80;;
5539;SDS011;2792;52.452;9.752;2023-09-07T06:50:01;12.13;;;7.23;;
5539;SDS011;2792;52.452;9.752;2023-09-07T06:52:27;11.93;;;8.10;;
5539;SDS011;2792;52.452;9.752;2023-09-07T06:54:54;8.50;;;7.60;;
5539;SDS011;2792;52.452;9.752;2023-09-07T06:57:20;9.03;;;7.83;;
5539;SDS011;2792;52.452;9.752;2023-09-07T06:59:47;9.33;;;7.87;;
5539;SDS011;2792;52.452;9.752;2023-09-07T07:02:14;7.93;;;7.13;;
5539;SDS011;2792;52.452;9.752;2023-09-07T07:04:42;9.63;;;8.37;;
5539;SDS011;2792;52.452;9.752;2023-09-07T07:07:10;12.33;;;7.60;;
5539;SDS011;2792;52.452;9.752;2023-09-07T07:09:37;14.23;;;7.90;;
5539;SDS011;2792;52.452;9.752;2023-09-07T07:12:04;13.47;;;8.40;;
5539;SDS011;2792;52.452;9.752;2023-09-07T07:14:31;11.80;;;8.30;;
5539;SDS011;2792;52.452;9.752;2023-09-07T07:16:57;9.43;;;7.63;;
5539;SDS011;2792;52.452;9.752;2023-09-07T07:19:24;9.83;;;7.37;;
5539;SDS011;2792;52.452;9.752;2023-09-07T07:21:52;9.20;;;7.20;;
5539;SDS011;2792;52.452;9.752;2023-09-07T07:24:18;9.30;;;6.73;;
5539;SDS011;2792;52.452;9.752;2023-09-07T07:26:45;8.00;;;6.87;;
5539;SDS011;2792;52.452;9.752;2023-09-07T07:29:12;13.03;;;7.53;;
5539;SDS011;2792;52.452;9.752;2023-09-07T07:31:38;8.27;;;6.93;;
5539;SDS011;2792;52.452;9.752;2023-09-07T07:34:05;10.00;;;7.50;;
5539;SDS011;2792;52.452;9.752;2023-09-07T07:36:31;9.07;;;6.60;;
5539;SDS011;2792;52.452;9.752;2023-09-07T07:38:59;9.60;;;7.37;;
5539;SDS011;2792;52.452;9.752;2023-09-07T07:41:26;10.70;;;7.10;;
5539;SDS011;2792;52.452;9.752;2023-09-07T07:43:52;7.63;;;6.63;;
5539;SDS011;2792;52.452;9.752;2023-09-07T07:46:19;10.00;;;6.80;;
5539;SDS011;2792;52.452;9.752;2023-09-07T07:48:45;6.80;;;5.87;;
5539;SDS011;2792;52.452;9.752;2023-09-07T07:51:12;8.80;;;5.80;;
5539;SDS011;2792;52.452;9.752;2023-09-07T07:53:38;9.20;;;6.47;;
5539;SDS011;2792;52.452;9.752;2023-09-07T07:56:06;6.87;;;6.00;;
5539;SDS011;2792;52.452;9.752;2023-09-07T07:58:40;6.93;;;6.23;;
5539;SDS011;2792;52.452;9.752;2023-09-07T08:01:12;6.90;;;5.77;;
5539;SDS011;2792;52.452;9.752;2023-09-07T08:03:39;8.73;;;5.60;;
5539;SDS011;2792;52.452;9.752;2023-09-07T08:06:06;11.40;;;6.00;;
5539;SDS011;2792;52.452;9.752;2023-09-07T08:08:32;7.80;;;6.27;;
5539;SDS011;2792;52.452;9.752;2023-09-07T08:10:59;18.33;;;5.50;;
5539;SDS011;2792;52.452;9.752;2023-09-07T08:13:32;9.20;;;5.90;;
5539;SDS011;2792;52.452;9.752;2023-09-07T08:15:59;8.13;;;5.57;;
5539;SDS011;2792;52.452;9.752;2023-09-07T08:18:26;5.33;;;4.83;;
5539;SDS011;2792;52.452;9.752;2023-09-07T08:20:52;9.33;;;5.83;;
5539;SDS011;2792;52.452;9.752;2023-09-07T08:23:20;8.70;;;5.50;;
5539;SDS011;2792;52.452;9.752;2023-09-07T08:25:47;7.47;;;6.20;;
5539;SDS011;2792;52.452;9.752;2023-09-07T08:28:13;6.63;;;5.70;;
5539;SDS011;2792;52.452;9.752;2023-09-07T08:30:42;8.03;;;6.00;;
5539;SDS011;2792;52.452;9.752;2023-09-07T08:33:09;16.10;;;6.50;;
5539;SDS011;2792;52.452;9.752;2023-09-07T08:35:35;7.37;;;6.00;;
5539;SDS011;2792;52.452;9.752;2023-09-07T08:38:09;9.17;;;5.80;;
5539;SDS011;2792;52.452;9.752;2023-09-07T08:40:35;8.43;;;5.93;;
5539;SDS011;2792;52.452;9.752;2023-09-07T08:43:05;6.47;;;5.87;;
5539;SDS011;2792;52.452;9.752;2023-09-07T08:45:34;7.60;;;5.90;;
5539;SDS011;2792;52.452;9.752;2023-09-07T08:48:06;6.47;;;5.73;;
5539;SDS011;2792;52.452;9.752;2023-09-07T08:50:34;9.40;;;5.90;;
5539;SDS011;2792;52.452;9.752;2023-09-07T08:53:03;10.93;;;5.60;;
5539;SDS011;2792;52.452;9.752;2023-09-07T08:55:29;5.33;;;4.80;;
5539;SDS011;2792;52.452;9.752;2023-09-07T08:57:56;11.53;;;5.90;;
5539;SDS011;2792;52.452;9.752;2023-09-07T09:00:23;10.93;;;5.73;;
5539;SDS011;2792;52.452;9.752;2023-09-07T09:02:49;7.77;;;5.00;;
5539;SDS011;2792;52.452;9.752;2023-09-07T09:05:17;8.30;;;5.60;;
5539;SDS011;2792;52.452;9.752;2023-09-07T09:07:45;6.53;;;5.13;;
5539;SDS011;2792;52.452;9.752;2023-09-07T09:10:12;24.13;;;5.37;;
5539;SDS011;2792;52.452;9.752;2023-09-07T09:12:44;6.10;;;5.50;;
5539;SDS011;2792;52.452;9.752;2023-09-07T09:15:11;6.33;;;5.50;;
5539;SDS011;2792;52.452;9.752;2023-09-07T09:17:37;7.00;;;5.30;;
5539;SDS011;2792;52.452;9.752;2023-09-07T09:20:04;6.63;;;5.57;;
5539;SDS011;2792;52.452;9.752;2023-09-07T09:22:36;8.53;;;5.87;;
5539;SDS011;2792;52.452;9.752;2023-09-07T09:25:03;10.00;;;4.90;;
5539;SDS011;2792;52.452;9.752;2023-09-07T09:27:30;8.40;;;5.40;;
5539;SDS011;2792;52.452;9.752;2023-09-07T09:29:58;6.63;;;5.47;;
5539;SDS011;2792;52.452;9.752;2023-09-07T09:32:25;5.37;;;4.77;;
5539;SDS011;2792;52.452;9.752;2023-09-07T09:34:51;10.30;;;4.43;;
5539;SDS011;2792;52.452;9.752;2023-09-07T09:37:18;9.00;;;5.43;;
5539;SDS011;2792;52.452;9.752;2023-09-07T09:39:46;5.03;;;4.63;;
5539;SDS011;2792;52.452;9.752;2023-09-07T09:42:15;6.50;;;5.73;;
5539;SDS011;2792;52.452;9.752;2023-09-07T09:44:43;5.60;;;5.03;;
5539;SDS011;2792;52.452;9.752;2023-09-07T09:47:10;7.43;;;5.37;;
5539;SDS011;2792;52.452;9.752;2023-09-07T09:49:36;5.47;;;4.97;;
5539;SDS011;2792;52.452;9.752;2023-09-07T09:52:04;7.00;;;5.40;;
5539;SDS011;2792;52.452;9.752;2023-09-07T09:54:32;8.37;;;5.30;;
5539;SDS011;2792;52.452;9.752;2023-09-07T09:57:02;5.90;;;5.20;;
5539;SDS011;2792;52.452;9.752;2023-09-07T09:59:30;6.80;;;5.03;;
5539;SDS011;2792;52.452;9.752;2023-09-07T10:01:56;12.60;;;5.00;;
5539;SDS011;2792;52.452;9.752;2023-09-07T10:04:25;7.03;;;4.63;;
5539;SDS011;2792;52.452;9.752;2023-09-07T10:06:53;14.80;;;5.00;;
5539;SDS011;2792;52.452;9.752;2023-09-07T10:09:20;7.17;;;5.00;;
5539;SDS011;2792;52.452;9.752;2023-09-07T10:11:51;6.70;;;5.10;;
5539;SDS011;2792;52.452;9.752;2023-09-07T10:14:20;6.60;;;4.70;;
5539;SDS011;2792;52.452;9.752;2023-09-07T10:16:47;7.10;;;5.20;;
5539;SDS011;2792;52.452;9.752;2023-09-07T10:19:15;5.30;;;4.80;;
5539;SDS011;2792;52.452;9.752;2023-09-07T10:21:41;6.00;;;4.80;;
5539;SDS011;2792;52.452;9.752;2023-09-07T10:24:08;10.90;;;5.40;;
5539;SDS011;2792;52.452;9.752;2023-09-07T10:26:35;8.20;;;5.30;;
5539;SDS011;2792;52.452;9.752;2023-09-07T10:29:01;5.70;;;5.13;;
5539;SDS011;2792;52.452;9.752;2023-09-07T10:31:31;5.27;;;4.53;;
5539;SDS011;2792;52.452;9.752;2023-09-07T10:34:07;5.53;;;5.00;;
5539;SDS011;2792;52.452;9.752;2023-09-07T10:36:34;7.70;;;4.70;;
5539;SDS011;2792;52.452;9.752;2023-09-07T10:39:00;8.57;;;5.37;;
5539;SDS011;2792;52.452;9.752;2023-09-07T10:41:29;6.43;;;5.70;;
5539;SDS011;2792;52.452;9.752;2023-09-07T10:44:05;7.83;;;5.37;;
5539;SDS011;2792;52.452;9.752;2023-09-07T10:46:33;7.03;;;5.20;;
5539;SDS011;2792;52.452;9.752;2023-09-07T10:49:00;6.53;;;4.70;;
5539;SDS011;2792;52.452;9.752;2023-09-07T10:51:26;6.23;;;5.03;;
5539;SDS011;2792;52.452;9.752;2023-09-07T10:53:54;8.57;;;4.87;;
5539;SDS011;2792;52.452;9.752;2023-09-07T10:56:23;5.13;;;4.57;;
5539;SDS011;2792;52.452;9.752;2023-09-07T10:58:50;5.37;;;4.83;;
5539;SDS011;2792;52.452;9.752;2023-09-07T11:01:20;7.07;;;4.70;;
5539;SDS011;2792;52.452;9.752;2023-09-07T11:03:48;5.23;;;4.73;;
5539;SDS011;2792;52.452;9.752;2023-09-07T11:06:15;8.00;;;4.70;;
5539;SDS011;2792;52.452;9.752;2023-09-07T11:08:44;16.20;;;5.13;;
5539;SDS011;2792;52.452;9.752;2023-09-07T11:11:10;6.77;;;5.27;;
5539;SDS011;2792;52.452;9.752;2023-09-07T11:13:37;7.53;;;4.90;;
5539;SDS011;2792;52.452;9.752;2023-09-07T11:16:06;6.70;;;4.90;;
5539;SDS011;2792;52.452;9.752;2023-09-07T11:18:33;6.07;;;4.63;;
5539;SDS011;2792;52.452;9.752;2023-09-07T11:21:02;6.90;;;4.90;;
5539;SDS011;2792;52.452;9.752;2023-09-07T11:23:30;8.17;;;4.67;;
5539;SDS011;2792;52.452;9.752;2023-09-07T11:26:03;7.80;;;4.73;;
5539;SDS011;2792;52.452;9.752;2023-09-07T11:28:30;8.20;;;5.43;;
5539;SDS011;2792;52.452;9.752;2023-09-07T11:30:58;5.57;;;4.40;;
5539;SDS011;2792;52.452;9.752;2023-09-07T11:33:25;12.10;;;4.70;;
5539;SDS011;2792;52.452;9.752;2023-09-07T11:35:52;7.33;;;4.53;;
5539;SDS011;2792;52.452;9.752;2023-09-07T11:38:21;7.90;;;4.97;;
5539;SDS011;2792;52.452;9.752;2023-09-07T11:40:48;6.03;;;4.60;;
5539;SDS011;2792;52.452;9.752;2023-09-07T11:43:15;5.60;;;4.60;;
5539;SDS011;2792;52.452;9.752;2023-09-07T11:45:44;13.67;;;5.00;;
5539;SDS011;2792;52.452;9.752;2023-09-07T11:48:11;6.63;;;4.57;;
5539;SDS011;2792;52.452;9.752;2023-09-07T11:50:38;4.60;;;4.20;;
5539;SDS011;2792;52.452;9.752;2023-09-07T11:53:05;6.60;;;4.60;;
5539;SDS011;2792;52.452;9.752;2023-09-07T11:55:33;5.97;;;4.87;;
5539;SDS011;2792;52.452;9.752;2023-09-07T11:58:00;9.40;;;5.70;;
5539;SDS011;2792;52.452;9.752;2023-09-07T12:00:27;5.77;;;5.00;;
5539;SDS011;2792;52.452;9.752;2023-09-07T12:02:54;7.57;;;4.70;;
5539;SDS011;2792;52.452;9.752;2023-09-07T12:05:21;6.03;;;4.60;;
5539;SDS011;2792;52.452;9.752;2023-09-07T12:07:48;6.10;;;4.90;;
5539;SDS011;2792;52.452;9.752;2023-09-07T12:10:14;5.20;;;4.70;;
5539;SDS011;2792;52.452;9.752;2023-09-07T12:12:42;7.07;;;5.03;;
5539;SDS011;2792;52.452;9.752;2023-09-07T12:15:10;8.93;;;4.70;;
5539;SDS011;2792;52.452;9.752;2023-09-07T12:17:37;6.53;;;4.47;;
5539;SDS011;2792;52.452;9.752;2023-09-07T12:20:04;8.03;;;5.30;;
5539;SDS011;2792;52.452;9.752;2023-09-07T12:22:34;6.90;;;4.87;;
5539;SDS011;2792;52.452;9.752;2023-09-07T12:25:02;6.50;;;5.87;;
5539;SDS011;2792;52.452;9.752;2023-09-07T12:27:31;5.47;;;4.73;;
5539;SDS011;2792;52.452;9.752;2023-09-07T12:29:59;8.70;;;4.87;;
5539;SDS011;2792;52.452;9.752;2023-09-07T12:32:26;5.53;;;4.63;;
5539;SDS011;2792;52.452;9.752;2023-09-07T12:34:53;4.90;;;4.40;;
5539;SDS011;2792;52.452;9.752;2023-09-07T12:37:19;6.00;;;4.27;;
5539;SDS011;2792;52.452;9.752;2023-09-07T12:39:48;4.73;;;4.33;;
5539;SDS011;2792;52.452;9.752;2023-09-07T12:42:14;6.30;;;4.80;;
5539;SDS011;2792;52.452;9.752;2023-09-07T12:44:41;6.73;;;5.30;;
5539;SDS011;2792;52.452;9.752;2023-09-07T12:47:09;8.73;;;4.83;;
5539;SDS011;2792;52.452;9.752;2023-09-07T12:49:35;8.20;;;4.50;;
5539;SDS011;2792;52.452;9.752;2023-09-07T12:52:02;5.90;;;4.93;;
5539;SDS011;2792;52.452;9.752;2023-09-07T12:54:33;6.37;;;5.13;;
5539;SDS011;2792;52.452;9.752;2023-09-07T12:57:00;7.77;;;4.10;;
5539;SDS011;2792;52.452;9.752;2023-09-07T12:59:26;7.97;;;5.20;;
5539;SDS011;2792;52.452;9.752;2023-09-07T13:01:54;5.13;;;4.30;;
5539;SDS011;2792;52.452;9.752;2023-09-07T13:04:22;5.20;;;4.70;;
5539;SDS011;2792;52.452;9.752;2023-09-07T13:06:49;5.50;;;4.53;;
5539;SDS011;2792;52.452;9.752;2023-09-07T13:09:16;5.63;;;4.60;;
5539;SDS011;2792;52.452;9.752;2023-09-07T13:11:42;8.03;;;4.67;;
5539;SDS011;2792;52.452;9.752;2023-09-07T13:14:08;6.80;;;4.50;;
5539;SDS011;2792;52.452;9.752;2023-09-07T13:16:35;8.97;;;4.57;;
5539;SDS011;2792;52.452;9.752;2023-09-07T13:19:02;6.67;;;4.50;;
5539;SDS011;2792;52.452;9.752;2023-09-07T13:21:29;6.37;;;4.23;;
5539;SDS011;2792;52.452;9.752;2023-09-07T13:23:56;4.70;;;4.10;;
5539;SDS011;2792;52.452;9.752;2023-09-07T13:26:22;4.60;;;4.20;;
5539;SDS011;2792;52.452;9.752;2023-09-07T13:28:49;8.63;;;4.03;;
5539;SDS011;2792;52.452;9.752;2023-09-07T13:31:16;5.77;;;4.30;;
5539;SDS011;2792;52.452;9.752;2023-09-07T13:33:42;5.00;;;4.50;;
5539;SDS011;2792;52.452;9.752;2023-09-07T13:36:09;5.97;;;5.07;;
5539;SDS011;2792;52.452;9.752;2023-09-07T13:38:37;11.00;;;4.63;;
5539;SDS011;2792;52.452;9.752;2023-09-07T13:41:03;5.63;;;4.23;;
5539;SDS011;2792;52.452;9.752;2023-09-07T13:43:30;6.30;;;4.67;;
5539;SDS011;2792;52.452;9.752;2023-09-07T13:45:56;6.13;;;4.40;;
5539;SDS011;2792;52.452;9.752;2023-09-07T13:48:23;4.20;;;3.80;;
5539;SDS011;2792;52.452;9.752;2023-09-07T13:50:49;6.50;;;4.30;;
5539;SDS011;2792;52.452;9.752;2023-09-07T13:53:16;6.67;;;4.07;;
5539;SDS011;2792;52.452;9.752;2023-09-07T13:55:44;6.27;;;4.10;;
5539;SDS011;2792;52.452;9.752;2023-09-07T13:58:11;5.23;;;3.80;;
5539;SDS011;2792;52.452;9.752;2023-09-07T14:00:37;8.43;;;4.40;;
5539;SDS011;2792;52.452;9.752;2023-09-07T14:03:04;6.83;;;4.03;;
5539;SDS011;2792;52.452;9.752;2023-09-07T14:05:30;4.53;;;4.10;;
5539;SDS011;2792;52.452;9.752;2023-09-07T14:07:57;6.03;;;3.80;;
5539;SDS011;2792;52.452;9.752;2023-09-07T14:10:23;9.20;;;4.00;;
5539;SDS011;2792;52.452;9.752;2023-09-07T14:12:51;10.73;;;4.70;;
5539;SDS011;2792;52.452;9.752;2023-09-07T14:15:18;4.40;;;3.80;;
5539;SDS011;2792;52.452;9.752;2023-09-07T14:17:44;8.10;;;3.87;;
5539;SDS011;2792;52.452;9.752;2023-09-07T14:20:11;6.17;;;3.60;;
5539;SDS011;2792;52.452;9.752;2023-09-07T14:22:38;7.43;;;3.93;;
5539;SDS011;2792;52.452;9.752;2023-09-07T14:25:04;13.93;;;3.77;;
5539;SDS011;2792;52.452;9.752;2023-09-07T14:27:32;4.27;;;3.87;;
5539;SDS011;2792;52.452;9.752;2023-09-07T14:30:00;5.63;;;3.87;;
5539;SDS011;2792;52.452;9.752;2023-09-07T14:32:27;6.00;;;3.73;;
5539;SDS011;2792;52.452;9.752;2023-09-07T14:34:54;4.00;;;3.63;;
5539;SDS011;2792;52.452;9.752;2023-09-07T14:37:20;3.50;;;3.20;;
5539;SDS011;2792;52.452;9.752;2023-09-07T14:39:47;6.30;;;4.17;;
5539;SDS011;2792;52.452;9.752;2023-09-07T14:42:15;4.20;;;3.50;;
5539;SDS011;2792;52.452;9.752;2023-09-07T14:44:44;3.87;;;3.53;;
5539;SDS011;2792;52.452;9.752;2023-09-07T14:47:12;4.77;;;4.07;;
5539;SDS011;2792;52.452;9.752;2023-09-07T14:49:38;7.40;;;3.73;;
5539;SDS011;2792;52.452;9.752;2023-09-07T14:52:05;5.40;;;3.47;;
5539;SDS011;2792;52.452;9.752;2023-09-07T14:54:32;4.47;;;3.90;;
5539;SDS011;2792;52.452;9.752;2023-09-07T14:56:58;6.00;;;3.73;;
5539;SDS011;2792;52.452;9.752;2023-09-07T14:59:25;4.07;;;3.50;;
5539;SDS011;2792;52.452;9.752;2023-09-07T15:01:51;4.50;;;3.60;;
5539;SDS011;2792;52.452;9.752;2023-09-07T15:04:19;6.20;;;4.50;;
5539;SDS011;2792;52.452;9.752;2023-09-07T15:06:46;4.83;;;3.93;;
5539;SDS011;2792;52.452;9.752;2023-09-07T15:09:12;8.20;;;4.43;;
5539;SDS011;2792;52.452;9.752;2023-09-07T15:11:39;4.67;;;3.70;;